createdAt,value
2022-08-25T00:01:37.643Z,14.40
2022-08-25T00:04:10.560Z,16.02
2022-08-25T00:06:38.454Z,17.98
2022-08-25T00:09:06.487Z,15.55
2022-08-25T00:11:35.614Z,15.57
2022-08-25T00:14:05.554Z,10.38
2022-08-25T00:16:32.744Z,11.82
2022-08-25T00:19:02.034Z,8.13
2022-08-25T00:21:31.456Z,10.98
2022-08-25T00:23:59.695Z,10.27
2022-08-25T00:26:27.561Z,11.90
2022-08-25T00:28:55.213Z,11.77
2022-08-25T00:31:38.669Z,12.55
2022-08-25T00:34:09.367Z,10.95
2022-08-25T00:36:37.001Z,11.57
2022-08-25T00:39:04.389Z,12.45
2022-08-25T00:41:31.125Z,11.02
2022-08-25T00:44:00.470Z,11.23
2022-08-25T00:46:31.034Z,10.75
2022-08-25T00:49:05.701Z,9.82
2022-08-25T00:51:58.538Z,11.05
2022-08-25T00:54:30.715Z,6.18
2022-08-25T00:56:59.244Z,7.82
2022-08-25T00:59:27.559Z,6.68
2022-08-25T01:01:55.428Z,8.35
2022-08-25T01:04:22.550Z,9.80
2022-08-25T01:06:49.530Z,8.43
2022-08-25T01:09:17.582Z,7.85
2022-08-25T01:11:46.415Z,8.73
2022-08-25T01:14:18.842Z,7.30
2022-08-25T01:16:45.805Z,9.50
2022-08-25T01:19:17.610Z,7.45
2022-08-25T01:21:48.811Z,8.00
2022-08-25T01:24:57.322Z,9.23
2022-08-25T01:27:23.958Z,7.93
2022-08-25T01:29:51.006Z,9.93
2022-08-25T01:32:17.819Z,9.93
2022-08-25T01:34:45.872Z,8.38
2022-08-25T01:37:15.585Z,6.85
2022-08-25T01:39:43.338Z,5.70
2022-08-25T01:42:15.674Z,5.95
2022-08-25T01:44:45.311Z,7.50
2022-08-25T01:47:13.526Z,4.32
2022-08-25T01:49:40.255Z,7.03
2022-08-25T01:52:21.341Z,7.97
2022-08-25T01:54:48.444Z,4.03
2022-08-25T01:57:15.260Z,5.85
2022-08-25T01:59:41.958Z,7.72
2022-08-25T02:02:08.759Z,4.88
2022-08-25T02:04:37.724Z,8.52
2022-08-25T02:07:06.548Z,5.72
2022-08-25T02:09:35.449Z,5.85
2022-08-25T02:12:02.202Z,9.20
2022-08-25T02:14:28.900Z,8.45
2022-08-25T02:16:56.315Z,9.05
2022-08-25T02:19:24.656Z,9.18
2022-08-25T02:21:51.672Z,8.90
2022-08-25T02:24:18.957Z,8.45
2022-08-25T02:26:45.705Z,7.78
2022-08-25T02:29:12.401Z,9.18
2022-08-25T02:31:39.882Z,7.25
2022-08-25T02:34:07.843Z,8.65
2022-08-25T02:36:35.000Z,14.48
2022-08-25T02:39:03.166Z,8.23
2022-08-25T02:41:31.785Z,7.50
2022-08-25T02:44:03.002Z,7.50
2022-08-25T02:46:31.224Z,5.97
2022-08-25T02:48:58.487Z,8.63
2022-08-25T02:51:28.497Z,8.38
2022-08-25T02:53:57.892Z,7.88
2022-08-25T02:56:25.878Z,9.68
2022-08-25T02:58:52.658Z,8.48
2022-08-25T03:01:19.515Z,8.65
2022-08-25T03:03:48.310Z,8.80
2022-08-25T03:06:18.307Z,6.72
2022-08-25T03:08:45.342Z,6.10
2022-08-25T03:11:12.236Z,9.68
2022-08-25T03:13:39.454Z,7.78
2022-08-25T03:16:11.401Z,7.65
2022-08-25T03:18:40.474Z,14.68
2022-08-25T03:21:08.107Z,9.10
2022-08-25T03:23:35.314Z,9.85
2022-08-25T03:26:20.804Z,13.73
2022-08-25T03:28:47.458Z,10.13
2022-08-25T03:31:14.257Z,10.15
2022-08-25T03:33:40.918Z,13.50
2022-08-25T03:36:09.378Z,14.73
2022-08-25T03:38:38.452Z,12.60
2022-08-25T03:41:30.332Z,13.73
2022-08-25T03:43:57.521Z,10.07
2022-08-25T03:46:32.449Z,12.52
2022-08-25T03:49:04.962Z,8.48
2022-08-25T03:51:35.467Z,8.88
2022-08-25T03:54:03.558Z,15.18
2022-08-25T03:56:30.954Z,11.35
2022-08-25T03:58:57.800Z,14.85
2022-08-25T04:01:25.507Z,12.27
2022-08-25T04:03:52.300Z,11.73
2022-08-25T04:06:19.840Z,15.75
2022-08-25T04:08:46.712Z,11.23
2022-08-25T04:11:17.455Z,11.95
2022-08-25T04:13:46.557Z,13.38
2022-08-25T04:16:15.071Z,14.00
2022-08-25T04:18:42.672Z,13.65
2022-08-25T04:21:10.642Z,15.82
2022-08-25T04:23:38.811Z,12.00
2022-08-25T04:26:14.489Z,10.20
2022-08-25T04:28:41.770Z,9.82
2022-08-25T04:31:09.713Z,10.23
2022-08-25T04:33:38.104Z,8.65
2022-08-25T04:36:11.394Z,11.95
2022-08-25T04:38:40.627Z,11.93
2022-08-25T04:41:11.464Z,13.30
2022-08-25T04:43:39.888Z,14.70
2022-08-25T04:46:12.417Z,10.32
2022-08-25T04:48:40.343Z,14.50
2022-08-25T04:51:12.523Z,15.10
2022-08-25T04:53:40.830Z,13.93
2022-08-25T04:56:10.103Z,18.60
2022-08-25T04:58:37.826Z,17.30
2022-08-25T05:01:06.409Z,17.85
2022-08-25T05:03:33.338Z,21.88
2022-08-25T05:06:00.012Z,17.85
2022-08-25T05:08:27.449Z,20.98
2022-08-25T05:10:56.512Z,22.02
2022-08-25T05:13:24.807Z,25.17
2022-08-25T05:15:57.579Z,22.95
2022-08-25T05:18:30.124Z,16.20
2022-08-25T05:21:01.195Z,18.73
2022-08-25T05:23:27.823Z,11.77
2022-08-25T05:25:54.667Z,16.98
2022-08-25T05:28:21.624Z,15.02
2022-08-25T05:30:51.602Z,15.05
2022-08-25T05:33:18.443Z,12.60
2022-08-25T05:35:45.197Z,10.85
2022-08-25T05:38:15.353Z,11.90
2022-08-25T05:40:42.548Z,8.73
2022-08-25T05:43:09.363Z,10.55
2022-08-25T05:45:36.627Z,16.42
2022-08-25T05:48:03.574Z,13.40
2022-08-25T05:50:30.221Z,13.02
2022-08-25T05:52:56.824Z,19.17
2022-08-25T05:55:23.550Z,14.45
2022-08-25T05:57:50.357Z,17.90
2022-08-25T06:00:17.676Z,17.75
2022-08-25T06:02:46.206Z,16.63
2022-08-25T06:05:19.459Z,23.77
2022-08-25T06:07:48.487Z,25.15
2022-08-25T06:10:16.413Z,23.58
2022-08-25T06:12:44.706Z,25.40
2022-08-25T06:15:14.503Z,29.98
2022-08-25T06:17:42.812Z,32.35
2022-08-25T06:20:13.926Z,28.20
2022-08-25T06:22:40.898Z,29.67
2022-08-25T06:25:10.222Z,30.63
2022-08-25T06:27:37.540Z,25.00
2022-08-25T06:30:07.631Z,21.10
2022-08-25T06:32:36.605Z,24.08
2022-08-25T06:35:05.012Z,23.35
2022-08-25T06:37:32.682Z,22.77
2022-08-25T06:39:59.354Z,23.52
2022-08-25T06:42:26.311Z,25.23
2022-08-25T06:44:53.284Z,21.48
2022-08-25T06:47:20.379Z,18.23
2022-08-25T06:49:47.447Z,17.20
2022-08-25T06:52:14.545Z,19.75
2022-08-25T06:54:41.366Z,17.27
2022-08-25T06:57:08.376Z,19.95
2022-08-25T06:59:36.032Z,21.08
2022-08-25T07:02:04.483Z,19.77
2022-08-25T07:04:32.197Z,19.88
2022-08-25T07:06:59.071Z,14.43
2022-08-25T07:09:25.815Z,18.13
2022-08-25T07:11:52.477Z,15.55
2022-08-25T07:14:20.036Z,26.63
2022-08-25T07:16:50.397Z,17.13
2022-08-25T07:19:20.681Z,12.35
2022-08-25T07:21:51.330Z,14.07
2022-08-25T07:24:18.429Z,18.70
2022-08-25T07:26:46.670Z,13.32
2022-08-25T07:29:17.462Z,13.13
2022-08-25T07:31:44.658Z,13.63
2022-08-25T07:34:30.234Z,13.52
2022-08-25T07:36:58.574Z,19.73
2022-08-25T07:39:26.736Z,15.30
2022-08-25T07:41:55.780Z,12.48
2022-08-25T07:44:23.632Z,12.50
2022-08-25T07:46:51.232Z,16.27
2022-08-25T07:49:23.266Z,12.30
2022-08-25T07:52:05.403Z,16.15
2022-08-25T07:54:37.593Z,12.48
2022-08-25T07:59:39.434Z,11.18
2022-08-25T08:02:08.682Z,12.82
2022-08-25T08:04:37.272Z,23.02
2022-08-25T08:07:04.746Z,16.02
2022-08-25T08:09:38.690Z,17.25
2022-08-25T08:12:05.779Z,17.48
2022-08-25T08:14:32.745Z,14.20
2022-08-25T08:16:59.793Z,12.85
2022-08-25T08:19:26.696Z,15.63
2022-08-25T08:21:54.281Z,14.40
2022-08-25T08:24:40.776Z,15.93
2022-08-25T08:27:09.152Z,14.25
2022-08-25T08:29:36.948Z,15.90
2022-08-25T08:32:05.781Z,17.52
2022-08-25T08:34:33.253Z,13.40
2022-08-25T08:37:00.525Z,16.92
2022-08-25T08:39:28.285Z,15.45
2022-08-25T08:42:18.443Z,17.75
2022-08-25T08:44:45.093Z,10.13
2022-08-25T08:47:33.729Z,12.80
2022-08-25T08:50:27.712Z,16.10
2022-08-25T08:53:22.157Z,16.27
2022-08-25T08:55:53.516Z,15.65
2022-08-25T08:58:51.096Z,13.65
2022-08-25T09:01:29.319Z,11.07
2022-08-25T09:04:09.679Z,13.20
2022-08-25T09:06:42.801Z,16.65
2022-08-25T09:09:14.617Z,15.65
2022-08-25T09:12:12.816Z,18.10
2022-08-25T09:14:57.420Z,14.90
2022-08-25T09:17:54.637Z,12.52
2022-08-25T09:20:46.667Z,10.82
2022-08-25T09:23:34.199Z,13.27
2022-08-25T09:26:33.104Z,15.98
2022-08-25T09:29:07.286Z,13.40
2022-08-25T09:31:43.411Z,13.00
2022-08-25T09:34:21.209Z,10.10
2022-08-25T09:36:50.858Z,13.82
2022-08-25T09:39:20.508Z,15.05
2022-08-25T09:41:52.081Z,11.88
2022-08-25T09:44:28.144Z,12.95
2022-08-25T09:47:02.564Z,12.13
2022-08-25T09:49:44.442Z,11.00
2022-08-25T09:52:41.770Z,10.73
2022-08-25T09:55:08.497Z,12.75
2022-08-25T09:57:44.134Z,12.77
2022-08-25T10:00:15.240Z,14.10
2022-08-25T10:02:44.421Z,21.45
2022-08-25T10:05:25.998Z,9.68
2022-08-25T10:10:38.150Z,10.52
2022-08-25T10:13:23.039Z,13.18
2022-08-25T10:16:20.587Z,18.08
2022-08-25T10:19:01.989Z,16.65
2022-08-25T10:21:28.695Z,12.98
2022-08-25T10:23:58.905Z,13.10
2022-08-25T10:26:41.331Z,11.75
2022-08-25T10:29:34.274Z,9.77
2022-08-25T10:32:16.343Z,11.70
2022-08-25T10:34:53.861Z,8.20
2022-08-25T10:37:59.092Z,11.02
2022-08-25T10:40:37.397Z,15.43
2022-08-25T10:43:32.414Z,10.45
2022-08-25T10:46:35.368Z,10.95
2022-08-25T10:49:13.666Z,11.20
2022-08-25T10:52:05.437Z,11.88
2022-08-25T10:54:40.812Z,13.80
2022-08-25T10:57:43.586Z,7.93
2022-08-25T11:00:17.708Z,11.95
2022-08-25T11:03:18.567Z,8.90
2022-08-25T11:06:02.851Z,8.83
2022-08-25T11:08:48.712Z,6.90
2022-08-25T11:11:28.468Z,8.95
2022-08-25T11:14:11.255Z,10.85
2022-08-25T11:16:45.222Z,10.55
2022-08-25T11:19:30.733Z,8.15
2022-08-25T11:22:19.619Z,12.68
2022-08-25T11:25:23.347Z,7.07
2022-08-25T11:28:02.873Z,8.20
2022-08-25T11:30:29.868Z,8.27
2022-08-25T11:32:58.115Z,10.02
2022-08-25T11:35:41.632Z,8.73
2022-08-25T11:38:08.958Z,7.60
2022-08-25T11:41:11.469Z,6.30
2022-08-25T11:44:09.243Z,10.73
2022-08-25T11:46:57.908Z,8.98
2022-08-25T11:49:49.871Z,13.50
2022-08-25T11:52:53.900Z,7.20
2022-08-25T11:55:27.828Z,11.40
2022-08-25T11:58:33.788Z,7.90
2022-08-25T12:01:03.135Z,9.80
2022-08-25T12:03:32.706Z,7.30
2022-08-25T12:06:25.439Z,10.82
2022-08-25T12:09:01.206Z,6.18
2022-08-25T12:11:54.679Z,7.53
2022-08-25T12:14:24.586Z,9.90
2022-08-25T12:16:55.014Z,10.52
2022-08-25T12:19:38.052Z,8.13
2022-08-25T12:22:04.729Z,7.63
2022-08-25T12:24:48.636Z,7.82
2022-08-25T12:27:33.858Z,9.57
2022-08-25T12:30:38.874Z,6.35
2022-08-25T12:33:33.831Z,13.32
2022-08-25T12:36:04.436Z,8.82
2022-08-25T12:38:52.061Z,7.78
2022-08-25T12:41:31.073Z,9.27
2022-08-25T12:44:38.089Z,9.00
2022-08-25T12:47:23.662Z,7.18
2022-08-25T12:49:50.813Z,15.65
2022-08-25T12:52:21.499Z,9.50
2022-08-25T12:55:06.405Z,8.90
2022-08-25T12:57:41.303Z,50.63
2022-08-25T13:03:04.725Z,6.07
2022-08-25T13:06:00.109Z,8.07
2022-08-25T13:08:47.010Z,5.45
2022-08-25T13:11:23.606Z,6.28
2022-08-25T13:14:19.927Z,6.65
2022-08-25T13:16:55.511Z,6.63
2022-08-25T13:19:22.611Z,10.45
2022-08-25T13:21:49.880Z,11.60
2022-08-25T13:24:26.902Z,10.00
2022-08-25T13:27:24.843Z,7.22
2022-08-25T13:30:03.812Z,6.45
2022-08-25T13:32:35.600Z,12.13
2022-08-25T13:35:12.155Z,7.95
2022-08-25T13:37:41.144Z,6.85
2022-08-25T13:40:20.054Z,8.27
2022-08-25T13:43:05.796Z,7.25
2022-08-25T13:45:41.312Z,8.70
2022-08-25T13:48:23.056Z,8.00
2022-08-25T13:50:53.133Z,7.45
2022-08-25T13:53:26.008Z,7.60
2022-08-25T13:55:59.700Z,12.18
2022-08-25T13:58:39.294Z,8.40
2022-08-25T14:01:44.086Z,7.65
2022-08-25T14:04:26.711Z,8.95
2022-08-25T14:07:15.203Z,8.52
2022-08-25T14:09:54.118Z,7.20
2022-08-25T14:12:37.780Z,16.70
2022-08-25T14:15:27.044Z,7.10
2022-08-25T14:18:17.522Z,9.43
2022-08-25T14:20:50.439Z,9.43
2022-08-25T14:23:25.816Z,10.20
2022-08-25T14:25:55.474Z,8.80
2022-08-25T14:28:29.010Z,8.27
2022-08-25T14:31:27.709Z,6.80
2022-08-25T14:34:29.548Z,8.85
2022-08-25T14:36:56.597Z,12.77
2022-08-25T14:39:23.316Z,7.30
2022-08-25T14:41:52.640Z,5.45
2022-08-25T14:44:21.058Z,6.60
2022-08-25T14:46:54.115Z,10.82
2022-08-25T14:49:29.699Z,4.32
2022-08-25T14:52:01.063Z,5.28
2022-08-25T14:54:29.264Z,6.65
2022-08-25T14:56:57.142Z,8.63
2022-08-25T14:59:24.043Z,11.32
2022-08-25T15:01:50.824Z,7.03
2022-08-25T15:04:22.363Z,9.50
2022-08-25T15:06:53.813Z,10.48
2022-08-25T15:09:21.490Z,10.52
2022-08-25T15:11:51.933Z,8.05
2022-08-25T15:14:28.835Z,12.00
2022-08-25T15:17:01.210Z,9.60
2022-08-25T15:19:28.821Z,8.43
2022-08-25T15:21:57.831Z,15.55
2022-08-25T15:24:26.843Z,7.30
2022-08-25T15:27:01.828Z,7.97
2022-08-25T15:29:30.612Z,9.05
2022-08-25T15:31:58.701Z,9.18
2022-08-25T15:34:25.639Z,5.95
2022-08-25T15:36:52.493Z,7.50
2022-08-25T15:39:19.735Z,7.32
2022-08-25T15:41:52.275Z,9.80
2022-08-25T15:44:19.798Z,7.32
2022-08-25T15:46:49.580Z,8.80
2022-08-25T15:49:20.357Z,6.78
2022-08-25T15:51:47.550Z,9.70
2022-08-25T15:54:15.759Z,7.30
2022-08-25T15:56:44.040Z,11.63
2022-08-25T15:59:13.357Z,6.03
2022-08-25T16:01:41.193Z,5.18
2022-08-25T16:04:07.996Z,7.28
2022-08-25T16:06:34.619Z,10.77
2022-08-25T16:09:02.328Z,11.35
2022-08-25T16:11:30.719Z,9.13
2022-08-25T16:13:58.045Z,7.70
2022-08-25T16:16:26.960Z,8.77
2022-08-25T16:18:54.601Z,10.60
2022-08-25T16:21:25.593Z,8.50
2022-08-25T16:24:02.635Z,6.40
2022-08-25T16:26:32.991Z,9.45
2022-08-25T16:28:59.630Z,6.25
2022-08-25T16:31:27.255Z,11.27
2022-08-25T16:33:57.666Z,11.10
2022-08-25T16:36:27.231Z,6.50
2022-08-25T16:38:57.340Z,5.85
2022-08-25T16:41:26.120Z,12.60
2022-08-25T16:43:53.151Z,9.02
2022-08-25T16:46:21.202Z,5.60
2022-08-25T16:48:48.608Z,6.47
2022-08-25T16:51:19.419Z,15.23
2022-08-25T16:54:08.321Z,15.27
2022-08-25T16:56:37.162Z,14.00
2022-08-25T16:59:06.362Z,16.05
2022-08-25T17:01:36.391Z,12.75
2022-08-25T17:04:03.781Z,13.75
2022-08-25T17:06:35.723Z,8.00
2022-08-25T17:09:02.406Z,7.15
2022-08-25T17:11:32.800Z,9.48
2022-08-25T17:14:06.802Z,7.20
2022-08-25T17:16:38.201Z,7.82
2022-08-25T17:19:08.055Z,7.88
2022-08-25T17:21:40.903Z,10.88
2022-08-25T17:24:12.852Z,8.40
2022-08-25T17:26:41.340Z,8.10
2022-08-25T17:29:08.394Z,14.07
2022-08-25T17:31:39.993Z,10.80
2022-08-25T17:34:12.862Z,8.80
2022-08-25T17:36:43.945Z,10.55
2022-08-25T17:39:12.596Z,12.57
2022-08-25T17:41:39.795Z,13.20
2022-08-25T17:44:07.531Z,10.68
2022-08-25T17:46:34.199Z,13.13
2022-08-25T17:49:00.878Z,13.82
2022-08-25T17:51:29.701Z,10.73
2022-08-25T17:53:58.774Z,11.60
2022-08-25T17:56:27.330Z,11.32
2022-08-25T17:58:55.760Z,10.52
2022-08-25T18:01:29.591Z,13.90
2022-08-25T18:03:57.424Z,12.77
2022-08-25T18:06:24.935Z,12.55
2022-08-25T18:08:58.692Z,12.13
2022-08-25T18:11:27.069Z,12.77
2022-08-25T18:13:55.650Z,14.30
2022-08-25T18:16:23.217Z,12.15
2022-08-25T18:18:50.394Z,10.75
2022-08-25T18:21:20.273Z,15.00
2022-08-25T18:23:47.716Z,9.90
2022-08-25T18:26:17.132Z,11.18
2022-08-25T18:28:48.713Z,15.55
2022-08-25T18:31:15.507Z,11.52
2022-08-25T18:33:46.768Z,16.23
2022-08-25T18:36:13.772Z,12.77
2022-08-25T18:39:00.438Z,14.20
2022-08-25T18:41:33.027Z,10.20
2022-08-25T18:43:59.699Z,16.05
2022-08-25T18:46:26.322Z,13.55
2022-08-25T18:48:53.243Z,12.25
2022-08-25T18:51:22.924Z,13.60
2022-08-25T18:53:54.457Z,11.93
2022-08-25T18:56:26.415Z,13.38
2022-08-25T18:58:53.143Z,14.93
2022-08-25T19:01:20.528Z,16.70
2022-08-25T19:03:48.368Z,18.15
2022-08-25T19:06:15.461Z,19.48
2022-08-25T19:08:42.329Z,16.85
2022-08-25T19:11:09.677Z,20.17
2022-08-25T19:13:36.535Z,18.05
2022-08-25T19:16:11.829Z,16.23
2022-08-25T19:18:38.998Z,16.20
2022-08-25T19:21:08.198Z,21.83
2022-08-25T19:23:37.987Z,19.40
2022-08-25T19:26:08.929Z,25.33
2022-08-25T19:28:45.888Z,18.25
2022-08-25T19:31:22.772Z,22.08
2022-08-25T19:33:52.391Z,26.23
2022-08-25T19:36:31.298Z,24.10
2022-08-25T19:39:01.091Z,30.48
2022-08-25T19:41:29.530Z,23.77
2022-08-25T19:43:57.600Z,21.67
2022-08-25T19:46:35.675Z,22.35
2022-08-25T19:49:22.359Z,28.73
2022-08-25T19:51:51.425Z,26.92
2022-08-25T19:54:27.802Z,29.02
2022-08-25T19:56:55.745Z,44.17
2022-08-25T19:59:42.259Z,36.22
2022-08-25T20:02:15.142Z,31.48
2022-08-25T20:04:42.224Z,38.72
2022-08-25T20:07:09.207Z,38.05
2022-08-25T20:09:40.922Z,30.70
2022-08-25T20:12:09.517Z,32.25
2022-08-25T20:14:36.515Z,45.80
2022-08-25T20:17:04.242Z,34.75
2022-08-25T20:19:41.419Z,32.85
2022-08-25T20:22:11.212Z,35.42
2022-08-25T20:24:55.910Z,39.78
2022-08-25T20:27:34.220Z,46.65
2022-08-25T20:30:03.145Z,38.78
2022-08-25T20:32:31.884Z,39.17
2022-08-25T20:34:58.598Z,40.08
2022-08-25T20:37:25.792Z,34.05
2022-08-25T20:39:52.828Z,39.28
2022-08-25T20:42:19.719Z,27.75
2022-08-25T20:44:47.024Z,33.67
2022-08-25T20:47:14.916Z,32.40
2022-08-25T20:49:44.832Z,28.25
2022-08-25T20:52:12.148Z,28.70
2022-08-25T20:54:40.281Z,28.20
2022-08-25T20:57:07.936Z,31.02
2022-08-25T20:59:34.924Z,25.67
2022-08-25T21:02:02.111Z,28.58
2022-08-25T21:04:30.126Z,22.25
2022-08-25T21:06:58.129Z,31.10
2022-08-25T21:09:26.396Z,26.25
2022-08-25T21:11:56.577Z,25.10
2022-08-25T21:14:24.169Z,29.05
2022-08-25T21:16:52.407Z,29.58
2022-08-25T21:19:26.738Z,25.25
2022-08-25T21:21:59.467Z,23.23
2022-08-25T21:24:28.322Z,28.92
2022-08-25T21:26:58.592Z,31.17
2022-08-25T21:31:56.387Z,28.15
2022-08-25T21:34:23.438Z,33.40
2022-08-25T21:36:50.148Z,30.88
2022-08-25T21:39:17.183Z,31.83
2022-08-25T21:41:44.615Z,32.30
2022-08-25T21:44:12.763Z,25.08
2022-08-25T21:46:42.272Z,27.27
2022-08-25T21:49:20.894Z,30.10
2022-08-25T21:51:47.574Z,26.40
2022-08-25T21:54:16.880Z,30.92
2022-08-25T21:56:48.604Z,30.33
2022-08-25T21:59:19.147Z,20.77
2022-08-25T22:01:46.067Z,25.50
2022-08-25T22:04:14.244Z,25.75
2022-08-25T22:06:42.051Z,21.33
2022-08-25T22:09:12.689Z,24.85
2022-08-25T22:11:42.219Z,26.88
2022-08-25T22:14:10.013Z,22.08
2022-08-25T22:16:38.144Z,18.20
2022-08-25T22:19:06.203Z,19.23
2022-08-25T22:21:33.407Z,22.02
2022-08-25T22:24:00.607Z,19.17
2022-08-25T22:26:29.636Z,21.40
2022-08-25T22:28:57.802Z,17.45
2022-08-25T22:31:25.152Z,16.40
2022-08-25T22:33:52.329Z,18.42
2022-08-25T22:36:29.897Z,16.67
2022-08-25T22:38:57.480Z,22.85
2022-08-25T22:41:26.921Z,16.20
2022-08-25T22:43:56.572Z,22.83
2022-08-25T22:46:27.863Z,19.65
2022-08-25T22:48:55.931Z,21.23
2022-08-25T22:51:28.242Z,15.10
2022-08-25T22:53:55.313Z,14.50
2022-08-25T22:56:30.746Z,17.33
2022-08-25T22:59:03.127Z,17.20
2022-08-25T23:01:31.775Z,13.65
2022-08-25T23:04:00.952Z,18.38
2022-08-25T23:06:29.393Z,15.70
2022-08-25T23:08:56.299Z,17.70
2022-08-25T23:11:24.368Z,16.55
2022-08-25T23:13:55.272Z,17.75
2022-08-25T23:16:22.898Z,11.87
2022-08-25T23:18:49.861Z,16.80
2022-08-25T23:21:40.916Z,11.75
2022-08-25T23:24:08.757Z,15.32
2022-08-25T23:26:42.403Z,15.27
2022-08-25T23:31:46.941Z,15.95
2022-08-25T23:34:15.251Z,10.77
2022-08-25T23:36:42.146Z,9.80
2022-08-25T23:39:09.126Z,12.98
2022-08-25T23:41:36.961Z,13.27
2022-08-25T23:44:09.295Z,19.35
2022-08-25T23:46:39.003Z,15.50
2022-08-25T23:49:08.421Z,14.43
2022-08-25T23:51:38.103Z,17.23
2022-08-25T23:54:09.602Z,11.57
2022-08-25T23:56:44.594Z,14.23
2022-08-25T23:59:18.148Z,12.95
